sensor_id;sensor_type;location;lat;lon;timestamp;temperature;humidity
20610;DHT22;10463;52.378;9.688;2023-04-15T00:01:11;24.90;22.20
20610;DHT22;10463;52.378;9.688;2023-04-15T00:03:56;24.90;22.20
20610;DHT22;10463;52.378;9.688;2023-04-15T00:06:41;24.80;22.20
20610;DHT22;10463;52.378;9.688;2023-04-15T00:09:26;24.80;22.10
20610;DHT22;10463;52.378;9.688;2023-04-15T00:12:11;24.80;22.10
20610;DHT22;10463;52.378;9.688;2023-04-15T00:14:56;24.80;22.10
20610;DHT22;10463;52.378;9.688;2023-04-15T00:17:43;24.80;22.10
20610;DHT22;10463;52.378;9.688;2023-04-15T00:20:28;24.80;22.10
20610;DHT22;10463;52.378;9.688;2023-04-15T00:23:13;24.80;22.10
20610;DHT22;10463;52.378;9.688;2023-04-15T00:25:57;24.80;22.20
20610;DHT22;10463;52.378;9.688;2023-04-15T00:28:42;24.80;22.20
20610;DHT22;10463;52.378;9.688;2023-04-15T00:31:27;24.80;22.10
20610;DHT22;10463;52.378;9.688;2023-04-15T00:34:14;24.80;22.20
20610;DHT22;10463;52.378;9.688;2023-04-15T00:37:00;24.80;22.20
20610;DHT22;10463;52.378;9.688;2023-04-15T00:39:45;24.80;22.20
20610;DHT22;10463;52.378;9.688;2023-04-15T00:42:30;24.80;22.20
20610;DHT22;10463;52.378;9.688;2023-04-15T00:45:15;24.80;22.20
20610;DHT22;10463;52.378;9.688;2023-04-15T00:48:00;24.80;22.20
20610;DHT22;10463;52.378;9.688;2023-04-15T00:50:46;24.80;22.70
20610;DHT22;10463;52.378;9.688;2023-04-15T00:53:31;24.80;22.10
20610;DHT22;10463;52.378;9.688;2023-04-15T00:56:16;24.80;22.70
20610;DHT22;10463;52.378;9.688;2023-04-15T00:59:00;24.80;22.20
20610;DHT22;10463;52.378;9.688;2023-04-15T01:01:46;24.80;22.20
20610;DHT22;10463;52.378;9.688;2023-04-15T01:04:31;24.70;22.20
20610;DHT22;10463;52.378;9.688;2023-04-15T01:07:17;24.70;22.20
20610;DHT22;10463;52.378;9.688;2023-04-15T01:10:02;24.70;22.10
20610;DHT22;10463;52.378;9.688;2023-04-15T01:12:47;24.80;22.20
20610;DHT22;10463;52.378;9.688;2023-04-15T01:15:32;24.70;22.20
20610;DHT22;10463;52.378;9.688;2023-04-15T01:18:17;24.70;22.20
20610;DHT22;10463;52.378;9.688;2023-04-15T01:21:04;24.70;22.20
20610;DHT22;10463;52.378;9.688;2023-04-15T01:23:51;24.70;22.20
20610;DHT22;10463;52.378;9.688;2023-04-15T01:26:39;24.70;22.20
20610;DHT22;10463;52.378;9.688;2023-04-15T01:29:26;24.70;22.20
20610;DHT22;10463;52.378;9.688;2023-04-15T01:32:11;24.70;22.20
20610;DHT22;10463;52.378;9.688;2023-04-15T01:34:56;24.70;22.20
20610;DHT22;10463;52.378;9.688;2023-04-15T01:37:42;24.70;22.20
20610;DHT22;10463;52.378;9.688;2023-04-15T01:40:26;24.70;22.20
20610;DHT22;10463;52.378;9.688;2023-04-15T01:43:12;24.70;22.20
20610;DHT22;10463;52.378;9.688;2023-04-15T01:46:00;24.70;22.20
20610;DHT22;10463;52.378;9.688;2023-04-15T01:48:45;24.70;22.20
20610;DHT22;10463;52.378;9.688;2023-04-15T01:51:30;24.70;22.20
20610;DHT22;10463;52.378;9.688;2023-04-15T01:54:15;24.70;22.20
20610;DHT22;10463;52.378;9.688;2023-04-15T01:57:00;24.70;22.20
20610;DHT22;10463;52.378;9.688;2023-04-15T01:59:47;24.70;22.20
20610;DHT22;10463;52.378;9.688;2023-04-15T02:02:32;24.60;22.20
20610;DHT22;10463;52.378;9.688;2023-04-15T02:05:17;24.70;22.20
20610;DHT22;10463;52.378;9.688;2023-04-15T02:08:05;24.70;22.20
20610;DHT22;10463;52.378;9.688;2023-04-15T02:10:50;24.60;22.20
20610;DHT22;10463;52.378;9.688;2023-04-15T02:13:35;24.70;22.80
20610;DHT22;10463;52.378;9.688;2023-04-15T02:16:21;24.60;22.20
20610;DHT22;10463;52.378;9.688;2023-04-15T02:19:06;24.60;22.20
20610;DHT22;10463;52.378;9.688;2023-04-15T02:21:51;24.60;22.20
20610;DHT22;10463;52.378;9.688;2023-04-15T02:24:36;24.60;22.20
20610;DHT22;10463;52.378;9.688;2023-04-15T02:30:09;24.60;22.20
20610;DHT22;10463;52.378;9.688;2023-04-15T02:32:55;24.60;22.20
20610;DHT22;10463;52.378;9.688;2023-04-15T02:35:43;24.60;22.20
20610;DHT22;10463;52.378;9.688;2023-04-15T02:38:29;24.60;22.20
20610;DHT22;10463;52.378;9.688;2023-04-15T02:41:15;24.60;22.20
20610;DHT22;10463;52.378;9.688;2023-04-15T02:44:01;24.60;22.20
20610;DHT22;10463;52.378;9.688;2023-04-15T02:46:48;24.60;22.20
20610;DHT22;10463;52.378;9.688;2023-04-15T02:49:38;24.60;22.20
20610;DHT22;10463;52.378;9.688;2023-04-15T02:52:23;24.60;22.20
20610;DHT22;10463;52.378;9.688;2023-04-15T02:55:08;24.60;22.20
20610;DHT22;10463;52.378;9.688;2023-04-15T02:57:55;24.60;22.30
20610;DHT22;10463;52.378;9.688;2023-04-15T03:00:41;24.50;22.20
20610;DHT22;10463;52.378;9.688;2023-04-15T03:03:26;24.60;22.20
20610;DHT22;10463;52.378;9.688;2023-04-15T03:06:13;24.60;22.30
20610;DHT22;10463;52.378;9.688;2023-04-15T03:08:58;24.50;22.20
20610;DHT22;10463;52.378;9.688;2023-04-15T03:11:45;24.50;22.20
20610;DHT22;10463;52.378;9.688;2023-04-15T03:14:29;24.50;22.20
20610;DHT22;10463;52.378;9.688;2023-04-15T03:17:14;24.50;22.20
20610;DHT22;10463;52.378;9.688;2023-04-15T03:20:01;24.50;22.20
20610;DHT22;10463;52.378;9.688;2023-04-15T03:22:48;24.50;22.20
20610;DHT22;10463;52.378;9.688;2023-04-15T03:25:33;24.50;22.20
20610;DHT22;10463;52.378;9.688;2023-04-15T03:28:18;24.50;22.20
20610;DHT22;10463;52.378;9.688;2023-04-15T03:31:03;24.50;22.20
20610;DHT22;10463;52.378;9.688;2023-04-15T03:33:48;24.50;22.20
20610;DHT22;10463;52.378;9.688;2023-04-15T03:36:34;24.50;22.20
20610;DHT22;10463;52.378;9.688;2023-04-15T03:39:20;24.50;22.20
20610;DHT22;10463;52.378;9.688;2023-04-15T03:42:05;24.50;22.20
20610;DHT22;10463;52.378;9.688;2023-04-15T03:44:50;24.50;22.20
20610;DHT22;10463;52.378;9.688;2023-04-15T03:47:34;24.50;22.20
20610;DHT22;10463;52.378;9.688;2023-04-15T03:50:19;24.40;22.10
20610;DHT22;10463;52.378;9.688;2023-04-15T03:53:04;24.40;22.20
20610;DHT22;10463;52.378;9.688;2023-04-15T03:55:50;24.40;22.20
20610;DHT22;10463;52.378;9.688;2023-04-15T03:58:35;24.40;22.20
20610;DHT22;10463;52.378;9.688;2023-04-15T04:01:20;24.40;22.20
20610;DHT22;10463;52.378;9.688;2023-04-15T04:04:05;24.40;22.20
20610;DHT22;10463;52.378;9.688;2023-04-15T04:06:50;24.40;22.20
20610;DHT22;10463;52.378;9.688;2023-04-15T04:09:34;24.40;22.20
20610;DHT22;10463;52.378;9.688;2023-04-15T04:12:21;24.40;22.20
20610;DHT22;10463;52.378;9.688;2023-04-15T04:15:07;24.40;22.70
20610;DHT22;10463;52.378;9.688;2023-04-15T04:17:52;24.40;22.20
20610;DHT22;10463;52.378;9.688;2023-04-15T04:20:36;24.40;22.20
20610;DHT22;10463;52.378;9.688;2023-04-15T04:23:21;24.40;22.20
20610;DHT22;10463;52.378;9.688;2023-04-15T04:26:05;24.40;22.20
20610;DHT22;10463;52.378;9.688;2023-04-15T04:28:52;24.40;22.20
20610;DHT22;10463;52.378;9.688;2023-04-15T04:31:37;24.40;22.20
20610;DHT22;10463;52.378;9.688;2023-04-15T04:34:22;24.40;22.20
20610;DHT22;10463;52.378;9.688;2023-04-15T04:37:06;24.40;22.20
20610;DHT22;10463;52.378;9.688;2023-04-15T04:39:51;24.40;22.20
20610;DHT22;10463;52.378;9.688;2023-04-15T04:42:36;24.40;22.20
20610;DHT22;10463;52.378;9.688;2023-04-15T04:45:22;24.30;22.20
20610;DHT22;10463;52.378;9.688;2023-04-15T04:48:07;24.40;22.20
20610;DHT22;10463;52.378;9.688;2023-04-15T04:50:52;24.40;22.20
20610;DHT22;10463;52.378;9.688;2023-04-15T04:53:37;24.40;22.30
20610;DHT22;10463;52.378;9.688;2023-04-15T04:56:21;24.30;22.20
20610;DHT22;10463;52.378;9.688;2023-04-15T04:59:06;24.40;22.20
20610;DHT22;10463;52.378;9.688;2023-04-15T05:01:52;24.30;22.20
20610;DHT22;10463;52.378;9.688;2023-04-15T05:04:37;24.30;22.20
20610;DHT22;10463;52.378;9.688;2023-04-15T05:07:22;24.30;22.20
20610;DHT22;10463;52.378;9.688;2023-04-15T05:10:09;24.30;22.20
20610;DHT22;10463;52.378;9.688;2023-04-15T05:12:53;24.30;22.20
20610;DHT22;10463;52.378;9.688;2023-04-15T05:15:38;24.30;22.20
20610;DHT22;10463;52.378;9.688;2023-04-15T05:18:26;24.30;22.20
20610;DHT22;10463;52.378;9.688;2023-04-15T05:21:11;24.30;22.20
20610;DHT22;10463;52.378;9.688;2023-04-15T05:23:56;24.30;22.20
20610;DHT22;10463;52.378;9.688;2023-04-15T05:26:40;24.30;22.20
20610;DHT22;10463;52.378;9.688;2023-04-15T05:29:25;24.30;22.20
20610;DHT22;10463;52.378;9.688;2023-04-15T05:32:11;24.30;22.20
20610;DHT22;10463;52.378;9.688;2023-04-15T05:34:57;24.30;22.20
20610;DHT22;10463;52.378;9.688;2023-04-15T05:37:41;24.30;22.20
20610;DHT22;10463;52.378;9.688;2023-04-15T05:40:26;24.30;22.20
20610;DHT22;10463;52.378;9.688;2023-04-15T05:43:11;24.30;22.20
20610;DHT22;10463;52.378;9.688;2023-04-15T05:45:56;24.30;22.20
20610;DHT22;10463;52.378;9.688;2023-04-15T05:48:41;24.30;22.20
20610;DHT22;10463;52.378;9.688;2023-04-15T05:51:27;24.30;22.20
20610;DHT22;10463;52.378;9.688;2023-04-15T05:54:11;24.20;22.20
20610;DHT22;10463;52.378;9.688;2023-04-15T05:56:56;24.30;22.20
20610;DHT22;10463;52.378;9.688;2023-04-15T05:59:41;24.20;22.20
20610;DHT22;10463;52.378;9.688;2023-04-15T06:02:26;24.20;22.20
20610;DHT22;10463;52.378;9.688;2023-04-15T06:05:11;24.20;22.20
20610;DHT22;10463;52.378;9.688;2023-04-15T06:07:58;24.20;22.20
20610;DHT22;10463;52.378;9.688;2023-04-15T06:10:43;24.20;22.20
20610;DHT22;10463;52.378;9.688;2023-04-15T06:13:28;24.20;22.20
20610;DHT22;10463;52.378;9.688;2023-04-15T06:16:12;24.20;22.20
20610;DHT22;10463;52.378;9.688;2023-04-15T06:18:57;24.20;22.20
20610;DHT22;10463;52.378;9.688;2023-04-15T06:21:41;24.20;22.20
20610;DHT22;10463;52.378;9.688;2023-04-15T06:24:28;24.20;22.20
20610;DHT22;10463;52.378;9.688;2023-04-15T06:27:12;24.20;22.20
20610;DHT22;10463;52.378;9.688;2023-04-15T06:29:57;24.20;22.20
20610;DHT22;10463;52.378;9.688;2023-04-15T06:32:42;24.20;22.20
20610;DHT22;10463;52.378;9.688;2023-04-15T06:35:27;24.20;22.80
20610;DHT22;10463;52.378;9.688;2023-04-15T06:38:12;24.20;22.20
20610;DHT22;10463;52.378;9.688;2023-04-15T06:40:59;24.20;22.20
20610;DHT22;10463;52.378;9.688;2023-04-15T06:43:43;24.20;22.20
20610;DHT22;10463;52.378;9.688;2023-04-15T06:46:28;24.20;22.20
20610;DHT22;10463;52.378;9.688;2023-04-15T06:49:12;24.20;22.20
20610;DHT22;10463;52.378;9.688;2023-04-15T06:51:57;24.10;22.20
20610;DHT22;10463;52.378;9.688;2023-04-15T06:54:42;24.20;22.30
20610;DHT22;10463;52.378;9.688;2023-04-15T06:57:28;24.20;22.80
20610;DHT22;10463;52.378;9.688;2023-04-15T07:00:13;24.10;22.20
20610;DHT22;10463;52.378;9.688;2023-04-15T07:02:58;24.20;22.30
20610;DHT22;10463;52.378;9.688;2023-04-15T07:05:46;24.10;22.20
20610;DHT22;10463;52.378;9.688;2023-04-15T07:08:31;24.10;22.20
20610;DHT22;10463;52.378;9.688;2023-04-15T07:11:15;24.10;22.20
20610;DHT22;10463;52.378;9.688;2023-04-15T07:14:02;24.10;22.20
20610;DHT22;10463;52.378;9.688;2023-04-15T07:16:47;24.10;22.20
20610;DHT22;10463;52.378;9.688;2023-04-15T07:19:32;24.10;22.20
20610;DHT22;10463;52.378;9.688;2023-04-15T07:22:16;24.10;22.20
20610;DHT22;10463;52.378;9.688;2023-04-15T07:25:01;24.10;22.20
20610;DHT22;10463;52.378;9.688;2023-04-15T07:27:46;24.10;22.20
20610;DHT22;10463;52.378;9.688;2023-04-15T07:30:32;24.10;22.20
20610;DHT22;10463;52.378;9.688;2023-04-15T07:33:18;24.10;22.20
20610;DHT22;10463;52.378;9.688;2023-04-15T07:36:03;24.10;22.20
20610;DHT22;10463;52.378;9.688;2023-04-15T07:38:48;24.10;22.30
20610;DHT22;10463;52.378;9.688;2023-04-15T07:41:32;24.10;22.30
20610;DHT22;10463;52.378;9.688;2023-04-15T07:44:18;24.10;22.20
20610;DHT22;10463;52.378;9.688;2023-04-15T07:47:04;24.10;22.30
20610;DHT22;10463;52.378;9.688;2023-04-15T07:49:49;24.10;22.30
20610;DHT22;10463;52.378;9.688;2023-04-15T07:52:35;24.10;22.30
20610;DHT22;10463;52.378;9.688;2023-04-15T07:55:22;24.10;22.30
20610;DHT22;10463;52.378;9.688;2023-04-15T07:58:07;24.10;22.30
20610;DHT22;10463;52.378;9.688;2023-04-15T08:00:52;24.10;22.30
20610;DHT22;10463;52.378;9.688;2023-04-15T08:03:40;24.10;22.30
20610;DHT22;10463;52.378;9.688;2023-04-15T08:06:25;24.00;22.20
20610;DHT22;10463;52.378;9.688;2023-04-15T08:09:10;24.10;22.30
20610;DHT22;10463;52.378;9.688;2023-04-15T08:11:55;24.10;22.30
20610;DHT22;10463;52.378;9.688;2023-04-15T08:14:40;24.10;22.30
20610;DHT22;10463;52.378;9.688;2023-04-15T08:17:25;24.10;22.30
20610;DHT22;10463;52.378;9.688;2023-04-15T08:20:11;24.10;22.30
20610;DHT22;10463;52.378;9.688;2023-04-15T08:22:57;24.10;22.30
20610;DHT22;10463;52.378;9.688;2023-04-15T08:25:41;24.10;22.30
20610;DHT22;10463;52.378;9.688;2023-04-15T08:28:26;24.10;22.30
20610;DHT22;10463;52.378;9.688;2023-04-15T08:31:11;24.10;22.30
20610;DHT22;10463;52.378;9.688;2023-04-15T08:33:57;24.00;22.30
20610;DHT22;10463;52.378;9.688;2023-04-15T08:36:43;24.10;22.30
20610;DHT22;10463;52.378;9.688;2023-04-15T08:39:29;24.10;22.30
20610;DHT22;10463;52.378;9.688;2023-04-15T08:42:16;24.10;22.30
20610;DHT22;10463;52.378;9.688;2023-04-15T08:45:04;24.00;22.30
20610;DHT22;10463;52.378;9.688;2023-04-15T08:47:54;24.00;22.80
20610;DHT22;10463;52.378;9.688;2023-04-15T08:50:39;24.00;22.30
20610;DHT22;10463;52.378;9.688;2023-04-15T08:53:29;24.00;22.30
20610;DHT22;10463;52.378;9.688;2023-04-15T08:56:15;24.00;22.40
20610;DHT22;10463;52.378;9.688;2023-04-15T08:59:01;24.00;22.40
20610;DHT22;10463;52.378;9.688;2023-04-15T09:01:46;24.00;22.50
20610;DHT22;10463;52.378;9.688;2023-04-15T09:04:31;24.00;22.50
20610;DHT22;10463;52.378;9.688;2023-04-15T09:07:16;24.00;22.50
20610;DHT22;10463;52.378;9.688;2023-04-15T09:10:02;24.00;22.50
20610;DHT22;10463;52.378;9.688;2023-04-15T09:12:47;24.00;22.50
20610;DHT22;10463;52.378;9.688;2023-04-15T09:15:32;24.10;22.60
20610;DHT22;10463;52.378;9.688;2023-04-15T09:18:27;24.00;22.60
20610;DHT22;10463;52.378;9.688;2023-04-15T09:21:15;24.10;22.70
20610;DHT22;10463;52.378;9.688;2023-04-15T09:24:01;24.10;22.70
20610;DHT22;10463;52.378;9.688;2023-04-15T09:26:52;24.10;22.70
20610;DHT22;10463;52.378;9.688;2023-04-15T09:29:40;24.10;22.80
20610;DHT22;10463;52.378;9.688;2023-04-15T09:32:25;24.10;22.80
20610;DHT22;10463;52.378;9.688;2023-04-15T09:35:11;24.10;22.80
20610;DHT22;10463;52.378;9.688;2023-04-15T09:38:03;24.10;22.80
20610;DHT22;10463;52.378;9.688;2023-04-15T09:40:48;24.10;22.80
20610;DHT22;10463;52.378;9.688;2023-04-15T09:43:39;24.10;22.80
20610;DHT22;10463;52.378;9.688;2023-04-15T09:46:42;24.10;22.80
20610;DHT22;10463;52.378;9.688;2023-04-15T09:49:27;24.10;22.80
20610;DHT22;10463;52.378;9.688;2023-04-15T09:52:13;24.10;23.30
20610;DHT22;10463;52.378;9.688;2023-04-15T09:54:58;24.10;22.80
20610;DHT22;10463;52.378;9.688;2023-04-15T09:57:45;24.10;22.80
20610;DHT22;10463;52.378;9.688;2023-04-15T10:00:35;24.10;22.80
20610;DHT22;10463;52.378;9.688;2023-04-15T10:03:23;24.10;22.80
20610;DHT22;10463;52.378;9.688;2023-04-15T10:06:08;24.10;22.80
20610;DHT22;10463;52.378;9.688;2023-04-15T10:08:54;24.10;22.80
20610;DHT22;10463;52.378;9.688;2023-04-15T10:11:40;24.10;23.30
20610;DHT22;10463;52.378;9.688;2023-04-15T10:14:27;24.10;22.80
20610;DHT22;10463;52.378;9.688;2023-04-15T10:17:21;24.10;22.80
20610;DHT22;10463;52.378;9.688;2023-04-15T10:20:08;24.10;22.80
20610;DHT22;10463;52.378;9.688;2023-04-15T10:22:54;24.10;22.70
20610;DHT22;10463;52.378;9.688;2023-04-15T10:25:38;24.10;22.70
20610;DHT22;10463;52.378;9.688;2023-04-15T10:28:24;24.10;22.80
20610;DHT22;10463;52.378;9.688;2023-04-15T10:31:11;24.10;22.70
20610;DHT22;10463;52.378;9.688;2023-04-15T10:33:59;24.10;22.70
20610;DHT22;10463;52.378;9.688;2023-04-15T10:36:47;24.10;22.70
20610;DHT22;10463;52.378;9.688;2023-04-15T10:39:40;24.10;22.70
20610;DHT22;10463;52.378;9.688;2023-04-15T10:42:33;24.20;22.80
20610;DHT22;10463;52.378;9.688;2023-04-15T10:45:18;24.10;22.70
20610;DHT22;10463;52.378;9.688;2023-04-15T10:48:06;24.10;22.80
20610;DHT22;10463;52.378;9.688;2023-04-15T10:50:57;24.10;22.80
20610;DHT22;10463;52.378;9.688;2023-04-15T10:53:44;24.10;22.80
20610;DHT22;10463;52.378;9.688;2023-04-15T10:56:29;24.10;22.90
20610;DHT22;10463;52.378;9.688;2023-04-15T10:59:15;24.10;22.90
20610;DHT22;10463;52.378;9.688;2023-04-15T11:02:02;24.10;22.90
20610;DHT22;10463;52.378;9.688;2023-04-15T11:04:54;24.10;22.90
20610;DHT22;10463;52.378;9.688;2023-04-15T11:07:53;24.10;23.00
20610;DHT22;10463;52.378;9.688;2023-04-15T11:10:53;24.10;23.00
20610;DHT22;10463;52.378;9.688;2023-04-15T11:13:48;24.20;23.10
20610;DHT22;10463;52.378;9.688;2023-04-15T11:16:41;24.10;23.00
20610;DHT22;10463;52.378;9.688;2023-04-15T11:19:36;24.20;23.10
20610;DHT22;10463;52.378;9.688;2023-04-15T11:22:21;24.20;23.10
20610;DHT22;10463;52.378;9.688;2023-04-15T11:25:08;24.20;23.10
20610;DHT22;10463;52.378;9.688;2023-04-15T11:30:41;24.20;23.20
20610;DHT22;10463;52.378;9.688;2023-04-15T11:33:27;24.20;23.20
20610;DHT22;10463;52.378;9.688;2023-04-15T11:36:11;24.20;23.20
20610;DHT22;10463;52.378;9.688;2023-04-15T11:38:58;24.20;23.20
20610;DHT22;10463;52.378;9.688;2023-04-15T11:41:44;24.20;23.20
20610;DHT22;10463;52.378;9.688;2023-04-15T11:44:29;24.20;23.20
20610;DHT22;10463;52.378;9.688;2023-04-15T11:47:23;24.20;23.20
20610;DHT22;10463;52.378;9.688;2023-04-15T11:50:16;24.20;23.10
20610;DHT22;10463;52.378;9.688;2023-04-15T11:53:03;24.20;23.10
20610;DHT22;10463;52.378;9.688;2023-04-15T11:55:50;24.20;23.10
20610;DHT22;10463;52.378;9.688;2023-04-15T11:58:37;24.20;23.10
20610;DHT22;10463;52.378;9.688;2023-04-15T12:01:30;24.20;23.10
20610;DHT22;10463;52.378;9.688;2023-04-15T12:04:17;24.20;23.10
20610;DHT22;10463;52.378;9.688;2023-04-15T12:07:06;24.20;23.10
20610;DHT22;10463;52.378;9.688;2023-04-15T12:09:54;24.20;23.10
20610;DHT22;10463;52.378;9.688;2023-04-15T12:12:40;24.20;23.10
20610;DHT22;10463;52.378;9.688;2023-04-15T12:15:27;24.20;23.10
20610;DHT22;10463;52.378;9.688;2023-04-15T12:18:16;24.20;23.00
20610;DHT22;10463;52.378;9.688;2023-04-15T12:21:08;24.20;23.00
20610;DHT22;10463;52.378;9.688;2023-04-15T12:23:55;24.20;23.10
20610;DHT22;10463;52.378;9.688;2023-04-15T12:26:46;24.20;23.00
20610;DHT22;10463;52.378;9.688;2023-04-15T12:29:34;24.20;23.00
20610;DHT22;10463;52.378;9.688;2023-04-15T12:32:22;24.20;23.00
20610;DHT22;10463;52.378;9.688;2023-04-15T12:35:07;24.20;23.00
20610;DHT22;10463;52.378;9.688;2023-04-15T12:37:52;24.20;23.00
20610;DHT22;10463;52.378;9.688;2023-04-15T12:40:37;24.20;23.10
20610;DHT22;10463;52.378;9.688;2023-04-15T12:43:22;24.20;23.00
20610;DHT22;10463;52.378;9.688;2023-04-15T12:46:07;24.20;23.00
20610;DHT22;10463;52.378;9.688;2023-04-15T12:48:55;24.20;23.00
20610;DHT22;10463;52.378;9.688;2023-04-15T12:51:40;24.20;23.00
20610;DHT22;10463;52.378;9.688;2023-04-15T12:54:26;24.20;23.00
20610;DHT22;10463;52.378;9.688;2023-04-15T12:57:11;24.20;23.10
20610;DHT22;10463;52.378;9.688;2023-04-15T12:59:55;24.20;23.10
20610;DHT22;10463;52.378;9.688;2023-04-15T13:02:42;24.20;23.20
20610;DHT22;10463;52.378;9.688;2023-04-15T13:05:28;24.20;23.20
20610;DHT22;10463;52.378;9.688;2023-04-15T13:08:13;24.20;23.20
20610;DHT22;10463;52.378;9.688;2023-04-15T13:10:59;24.20;23.20
20610;DHT22;10463;52.378;9.688;2023-04-15T13:13:44;24.20;23.20
20610;DHT22;10463;52.378;9.688;2023-04-15T13:16:30;24.20;23.20
20610;DHT22;10463;52.378;9.688;2023-04-15T13:19:15;24.20;23.30
20610;DHT22;10463;52.378;9.688;2023-04-15T13:22:01;24.20;23.30
20610;DHT22;10463;52.378;9.688;2023-04-15T13:24:47;24.30;23.40
20610;DHT22;10463;52.378;9.688;2023-04-15T13:27:31;24.20;23.40
20610;DHT22;10463;52.378;9.688;2023-04-15T13:30:17;24.30;23.40
20610;DHT22;10463;52.378;9.688;2023-04-15T13:33:02;24.20;23.40
20610;DHT22;10463;52.378;9.688;2023-04-15T13:35:47;24.30;23.40
20610;DHT22;10463;52.378;9.688;2023-04-15T13:38:33;24.30;23.40
20610;DHT22;10463;52.378;9.688;2023-04-15T13:41:18;24.30;23.50
20610;DHT22;10463;52.378;9.688;2023-04-15T13:44:04;24.30;23.50
20610;DHT22;10463;52.378;9.688;2023-04-15T13:46:51;24.30;23.50
20610;DHT22;10463;52.378;9.688;2023-04-15T13:49:36;24.30;23.50
20610;DHT22;10463;52.378;9.688;2023-04-15T13:52:20;24.30;23.50
20610;DHT22;10463;52.378;9.688;2023-04-15T13:55:08;24.30;23.50
20610;DHT22;10463;52.378;9.688;2023-04-15T13:57:52;24.30;23.60
20610;DHT22;10463;52.378;9.688;2023-04-15T14:00:37;24.30;23.60
20610;DHT22;10463;52.378;9.688;2023-04-15T14:03:21;24.30;23.60
20610;DHT22;10463;52.378;9.688;2023-04-15T14:06:06;24.30;23.60
20610;DHT22;10463;52.378;9.688;2023-04-15T14:08:51;24.40;23.70
20610;DHT22;10463;52.378;9.688;2023-04-15T14:11:38;24.40;23.70
20610;DHT22;10463;52.378;9.688;2023-04-15T14:14:24;24.40;23.70
20610;DHT22;10463;52.378;9.688;2023-04-15T14:17:08;24.40;23.80
20610;DHT22;10463;52.378;9.688;2023-04-15T14:19:53;24.40;23.80
20610;DHT22;10463;52.378;9.688;2023-04-15T14:22:38;24.50;23.80
20610;DHT22;10463;52.378;9.688;2023-04-15T14:25:23;24.40;23.80
20610;DHT22;10463;52.378;9.688;2023-04-15T14:28:10;24.50;23.80
20610;DHT22;10463;52.378;9.688;2023-04-15T14:30:54;24.50;23.80
20610;DHT22;10463;52.378;9.688;2023-04-15T14:33:39;24.50;23.80
20610;DHT22;10463;52.378;9.688;2023-04-15T14:36:24;24.60;23.80
20610;DHT22;10463;52.378;9.688;2023-04-15T14:39:10;24.60;23.80
20610;DHT22;10463;52.378;9.688;2023-04-15T14:41:57;24.60;23.80
20610;DHT22;10463;52.378;9.688;2023-04-15T14:44:43;24.60;23.80
20610;DHT22;10463;52.378;9.688;2023-04-15T14:47:28;24.60;23.80
20610;DHT22;10463;52.378;9.688;2023-04-15T14:50:15;24.60;23.80
20610;DHT22;10463;52.378;9.688;2023-04-15T14:53:00;24.70;23.90
20610;DHT22;10463;52.378;9.688;2023-04-15T14:55:45;24.70;23.90
20610;DHT22;10463;52.378;9.688;2023-04-15T14:58:30;24.70;24.20
20610;DHT22;10463;52.378;9.688;2023-04-15T15:01:18;24.70;23.90
20610;DHT22;10463;52.378;9.688;2023-04-15T15:04:03;24.70;23.80
20610;DHT22;10463;52.378;9.688;2023-04-15T15:06:48;24.70;23.80
20610;DHT22;10463;52.378;9.688;2023-04-15T15:12:15;24.70;23.80
20610;DHT22;10463;52.378;9.688;2023-04-15T15:15:00;24.70;23.80
20610;DHT22;10463;52.378;9.688;2023-04-15T15:20:56;24.80;23.80
20610;DHT22;10463;52.378;9.688;2023-04-15T15:23:42;24.80;23.80
20610;DHT22;10463;52.378;9.688;2023-04-15T15:26:26;24.80;23.80
20610;DHT22;10463;52.378;9.688;2023-04-15T15:29:11;24.80;23.80
20610;DHT22;10463;52.378;9.688;2023-04-15T15:31:56;24.80;23.80
20610;DHT22;10463;52.378;9.688;2023-04-15T15:34:40;24.80;23.80
20610;DHT22;10463;52.378;9.688;2023-04-15T15:37:26;24.80;23.80
20610;DHT22;10463;52.378;9.688;2023-04-15T15:40:13;24.80;23.80
20610;DHT22;10463;52.378;9.688;2023-04-15T15:42:58;24.80;23.70
20610;DHT22;10463;52.378;9.688;2023-04-15T15:45:43;24.80;23.70
20610;DHT22;10463;52.378;9.688;2023-04-15T15:48:28;24.80;23.70
20610;DHT22;10463;52.378;9.688;2023-04-15T15:51:12;24.80;23.70
20610;DHT22;10463;52.378;9.688;2023-04-15T15:53:58;24.80;23.70
20610;DHT22;10463;52.378;9.688;2023-04-15T15:56:44;24.80;23.70
20610;DHT22;10463;52.378;9.688;2023-04-15T15:59:29;24.80;23.70
20610;DHT22;10463;52.378;9.688;2023-04-15T16:02:13;24.80;23.70
20610;DHT22;10463;52.378;9.688;2023-04-15T16:04:58;24.80;23.70
20610;DHT22;10463;52.378;9.688;2023-04-15T16:07:42;24.80;23.70
20610;DHT22;10463;52.378;9.688;2023-04-15T16:10:28;24.90;23.80
20610;DHT22;10463;52.378;9.688;2023-04-15T16:13:14;24.80;23.70
20610;DHT22;10463;52.378;9.688;2023-04-15T16:15:59;24.80;23.70
20610;DHT22;10463;52.378;9.688;2023-04-15T16:18:44;24.80;23.70
20610;DHT22;10463;52.378;9.688;2023-04-15T16:21:28;24.80;23.70
20610;DHT22;10463;52.378;9.688;2023-04-15T16:24:14;24.80;23.70
20610;DHT22;10463;52.378;9.688;2023-04-15T16:27:00;24.80;23.70
20610;DHT22;10463;52.378;9.688;2023-04-15T16:29:46;24.90;23.70
20610;DHT22;10463;52.378;9.688;2023-04-15T16:32:31;24.90;23.70
20610;DHT22;10463;52.378;9.688;2023-04-15T16:35:15;24.90;23.80
20610;DHT22;10463;52.378;9.688;2023-04-15T16:38:00;24.90;23.80
20610;DHT22;10463;52.378;9.688;2023-04-15T16:40:45;24.90;23.70
20610;DHT22;10463;52.378;9.688;2023-04-15T16:43:31;24.90;23.70
20610;DHT22;10463;52.378;9.688;2023-04-15T16:46:15;24.90;23.70
20610;DHT22;10463;52.378;9.688;2023-04-15T16:49:00;24.90;23.70
20610;DHT22;10463;52.378;9.688;2023-04-15T16:51:45;24.90;23.70
20610;DHT22;10463;52.378;9.688;2023-04-15T16:54:29;24.90;23.70
20610;DHT22;10463;52.378;9.688;2023-04-15T16:57:14;24.90;23.70
20610;DHT22;10463;52.378;9.688;2023-04-15T17:00:01;24.90;23.70
20610;DHT22;10463;52.378;9.688;2023-04-15T17:02:46;24.90;23.70
20610;DHT22;10463;52.378;9.688;2023-04-15T17:05:30;24.90;23.70
20610;DHT22;10463;52.378;9.688;2023-04-15T17:08:15;24.90;23.70
20610;DHT22;10463;52.378;9.688;2023-04-15T17:11:00;24.90;23.70
20610;DHT22;10463;52.378;9.688;2023-04-15T17:13:46;24.90;23.70
20610;DHT22;10463;52.378;9.688;2023-04-15T17:16:32;24.90;23.70
20610;DHT22;10463;52.378;9.688;2023-04-15T17:19:17;24.90;23.70
20610;DHT22;10463;52.378;9.688;2023-04-15T17:22:02;24.90;23.70
20610;DHT22;10463;52.378;9.688;2023-04-15T17:24:46;24.90;23.70
20610;DHT22;10463;52.378;9.688;2023-04-15T17:27:31;24.90;23.70
20610;DHT22;10463;52.378;9.688;2023-04-15T17:30:15;24.90;23.70
20610;DHT22;10463;52.378;9.688;2023-04-15T17:33:01;24.90;23.70
20610;DHT22;10463;52.378;9.688;2023-04-15T17:35:46;24.90;23.70
20610;DHT22;10463;52.378;9.688;2023-04-15T17:38:31;24.90;23.70